Padma — 2CWE8 — position and weather

sailwx.info

Track history (hours):
 
Tides and Currents Weather Stations Pressure Air Temp Water Temp Dewpoint Dewpoint Depression Visibility Wind Speed Wind Dir Waves Ship Positions

Padma

Last reported at 2017-Aug-13 10:30 UTC. Time now 2017-Aug-18 03:01 UTC.
Position N 38°51' E 001°26'.

Length 25 m.

Type: Sailing vessel. MMSI: 235076308.

Date/timePositionNaut miles runAvg speedWind from/ knotsBaromVisibWave heightAir tempDewpointWater temp
2017-Aug-13 10:30N 38°51' E 001°26'4 2.6
2017-Aug-13 08:54N 38°55' E 001°27'0 0.9
2017-Aug-13 08:28N 38°55' E 001°27'2 5.0
2017-Aug-13 08:00N 38°52' E 001°26'  
2017-Aug-06 17:25N 38°45' E 001°25'5 0.2
2017-Aug-05 15:53N 38°49' E 001°21'4 9.1
2017-Aug-05 15:29N 38°46' E 001°24'2 0.1
2017-Aug-05 03:04N 38°44' E 001°25'5 0.1
2017-Aug-03 17:23N 38°49' E 001°23'5 0.9
2017-Aug-03 11:53N 38°45' E 001°26'3 5.5
2017-Aug-03 11:24N 38°48' E 001°26'  
Track history (hours):
 
Tides and Currents Weather Stations Pressure Air Temp Water Temp Dewpoint Dewpoint Depression Visibility Wind Speed Wind Dir Waves Ship Positions

Padma

Last reported at 2017-Aug-13 10:30 UTC. Time now 2017-Aug-18 03:01 UTC.
Position N 38°51' E 001°26'.

Length 25 m.

Type: Sailing vessel. MMSI: 235076308.

Date/timePositionNaut miles runAvg speedWind from/ knotsBaromVisibWave heightAir tempDewpointWater temp
2017-Aug-13 10:30N 38°51' E 001°26'4 2.6
2017-Aug-13 08:54N 38°55' E 001°27'0 0.9
2017-Aug-13 08:28N 38°55' E 001°27'2 5.0
2017-Aug-13 08:00N 38°52' E 001°26'  
2017-Aug-06 17:25N 38°45' E 001°25'5 0.2
2017-Aug-05 15:53N 38°49' E 001°21'4 9.1
2017-Aug-05 15:29N 38°46' E 001°24'2 0.1
2017-Aug-05 03:04N 38°44' E 001°25'5 0.1
2017-Aug-03 17:23N 38°49' E 001°23'5 0.9
2017-Aug-03 11:53N 38°45' E 001°26'3 5.5
2017-Aug-03 11:24N 38°48' E 001°26'  

Dump ship's entire track history